Time;durP1;ratioP1;P1;durP2;ratioP2;P2;SDS_P1;SDS_P2;PMS_P1;PMS_P2;Temp;Humidity;BMP_temperature;BMP_pressure;BME280_temperature;BME280_humidity;BME280_pressure;Samples;Min_cycle;Max_cycle;Signal;HPM_P1;HPM_P2
2023/01/24 00:01:45;;;;;;;;;;;;;;;2.64;87.80;103795.84;5067487;28;19916;-58
2023/01/24 00:04:10;;;;;;;;;;;;;;;2.64;87.99;103800.25;5070799;28;19934;-58
2023/01/24 00:06:35;;;;;;;;;;;;;;;2.63;87.88;103807.25;5075398;28;19920;-57
2023/01/24 00:09:00;;;;;;;;;;;;;;;2.64;88.05;103797.63;5066421;28;19920;-58
2023/01/24 00:11:25;;;;;;;;;;;;;;;2.64;87.95;103792.38;5067904;28;20007;-57
2023/01/24 00:13:51;;;;;;;;;;;;;;;2.65;88.19;103794.94;5079723;28;19916;-58
2023/01/24 00:16:20;;;;;;;;;;;;;;;2.62;87.99;103800.28;5066337;28;19917;-57
2023/01/24 00:18:45;;;;;;;;;;;;;;;2.61;88.01;103793.31;5075578;28;19912;-58
2023/01/24 00:21:13;;;;;;;;;;;;;;;2.61;87.99;103801.19;5064661;28;20024;-58
2023/01/24 00:23:43;;;;;;;;;;;;;;;2.61;88.09;103789.84;5071527;28;20302;-57
2023/01/24 00:26:08;;;;;;;;;;;;;;;2.61;88.23;103795.94;5063218;28;20403;-57
2023/01/24 00:28:33;;;;;;;;;;;;;;;2.61;88.27;103795.94;5067554;28;19920;-57
2023/01/24 00:30:59;;;;;;;;;;;;;;;2.62;88.30;103783.69;5079962;28;19931;-57
2023/01/24 00:33:24;;;;;;;;;;;;;;;2.61;87.95;103776.72;5068930;28;20015;-58
2023/01/24 00:35:51;;;;;;;;;;;;;;;2.61;87.89;103776.72;5080450;28;19922;-58
2023/01/24 00:38:16;;;;;;;;;;;;;;;2.59;87.72;103773.25;5077497;28;20391;-58
2023/01/24 00:40:41;;;;;;;;;;;;;;;2.60;88.13;103772.34;5077290;28;19912;-57
2023/01/24 00:43:06;;;;;;;;;;;;;;;2.60;87.75;103774.97;5063575;28;19969;-57
2023/01/24 00:45:34;;;;;;;;;;;;;;;2.61;88.19;103774.97;5071976;28;19970;-58
2023/01/24 00:47:59;;;;;;;;;;;;;;;2.60;88.17;103775.88;5064575;28;19924;-58
2023/01/24 00:50:25;;;;;;;;;;;;;;;2.60;88.21;103778.50;5068718;28;19974;-56
2023/01/24 00:52:50;;;;;;;;;;;;;;;2.59;87.86;103775.88;5068539;28;20553;-58
2023/01/24 00:55:15;;;;;;;;;;;;;;;2.58;88.12;103776.78;5074132;28;19938;-58
2023/01/24 00:57:41;;;;;;;;;;;;;;;2.55;87.82;103774.25;5081254;28;19925;-58
2023/01/24 01:00:08;;;;;;;;;;;;;;;2.54;87.81;103776.03;5083510;28;19916;-58
2023/01/24 01:02:33;;;;;;;;;;;;;;;2.53;88.07;103774.31;5070467;28;19943;-58
2023/01/24 01:04:58;;;;;;;;;;;;;;;2.51;87.84;103765.63;5071720;28;20383;-58
2023/01/24 01:07:24;;;;;;;;;;;;;;;2.51;87.77;103765.63;5078250;28;19917;-58
2023/01/24 01:09:49;;;;;;;;;;;;;;;2.49;87.88;103757.81;5071106;28;19935;-56
2023/01/24 01:12:15;;;;;;;;;;;;;;;2.46;87.75;103760.53;5070158;28;20363;-57
2023/01/24 01:14:40;;;;;;;;;;;;;;;2.44;87.88;103759.72;5069076;28;19928;-58
2023/01/24 01:17:05;;;;;;;;;;;;;;;2.45;87.78;103760.56;5066055;28;20237;-57
2023/01/24 01:19:30;;;;;;;;;;;;;;;2.43;87.83;103758.00;5078295;28;19924;-58
2023/01/24 01:21:56;;;;;;;;;;;;;;;2.44;87.67;103758.84;5073055;28;20601;-58
2023/01/24 01:24:21;;;;;;;;;;;;;;;2.44;87.49;103748.38;5075629;28;19924;-57
2023/01/24 01:26:46;;;;;;;;;;;;;;;2.44;87.76;103759.72;5074111;28;19961;-57
2023/01/24 01:29:11;;;;;;;;;;;;;;;2.44;87.60;103758.84;5065584;28;19924;-57
2023/01/24 01:31:36;;;;;;;;;;;;;;;2.43;87.82;103762.38;5065900;28;19992;-58
2023/01/24 01:34:02;;;;;;;;;;;;;;;2.42;87.93;103755.44;5066262;28;19916;-58
2023/01/24 01:36:27;;;;;;;;;;;;;;;2.42;87.72;103756.28;5072254;28;20376;-57
2023/01/24 01:38:53;;;;;;;;;;;;;;;2.41;87.71;103759.81;5073038;28;19923;-58
2023/01/24 01:41:18;;;;;;;;;;;;;;;2.39;87.94;103760.78;5072956;28;19989;-57
2023/01/24 01:46:29;;;;;;;;;;;;;;;2.38;87.92;103759.91;5070453;28;21062;-58
2023/01/24 01:48:56;;;;;;;;;;;;;;;2.41;87.89;103764.19;5074643;28;19916;-58
2023/01/24 01:51:27;;;;;;;;;;;;;;;2.42;88.09;103755.44;5061871;28;19916;-57
2023/01/24 01:53:56;;;;;;;;;;;;;;;2.41;88.00;103756.34;5063594;28;19925;-58
2023/01/24 01:56:41;;;;;;;;;;;;;;;2.42;88.09;103756.28;5072819;28;19942;-58
2023/01/24 01:59:09;;;;;;;;;;;;;;;2.42;88.01;103758.06;5064045;28;19920;-58
2023/01/24 02:01:35;;;;;;;;;;;;;;;2.42;88.23;103750.19;5065138;28;19923;-57
2023/01/24 02:04:06;;;;;;;;;;;;;;;2.42;88.19;103750.19;5068789;28;19936;-58
2023/01/24 02:06:46;;;;;;;;;;;;;;;2.45;88.16;103739.59;5065067;28;19924;-56
2023/01/24 02:09:12;;;;;;;;;;;;;;;2.39;87.56;103748.50;5071646;28;20375;-58
2023/01/24 02:11:38;;;;;;;;;;;;;;;2.40;87.87;103752.00;5067964;28;19920;-57
2023/01/24 02:16:47;;;;;;;;;;;;;;;2.41;88.00;103745.84;5066700;28;20005;-57
2023/01/24 02:19:18;;;;;;;;;;;;;;;2.42;87.99;103748.41;5065869;28;19960;-58
2023/01/24 02:21:45;;;;;;;;;;;;;;;2.44;88.10;103743.13;5060780;28;19923;-57
2023/01/24 02:24:21;;;;;;;;;;;;;;;2.43;88.28;103744.88;5065859;28;19962;-57
2023/01/24 02:26:46;;;;;;;;;;;;;;;2.46;88.42;103752.66;5068101;28;19969;-57
2023/01/24 02:29:14;;;;;;;;;;;;;;;2.46;88.22;103751.81;5072394;28;19924;-59
2023/01/24 02:31:52;;;;;;;;;;;;;;;2.44;88.34;103735.25;5061882;28;19963;-58
2023/01/24 02:34:17;;;;;;;;;;;;;;;2.44;88.26;103745.75;5062004;28;19917;-57
2023/01/24 02:36:43;;;;;;;;;;;;;;;2.41;88.12;103740.59;5056449;28;20376;-58
2023/01/24 02:39:13;;;;;;;;;;;;;;;2.39;88.03;103747.66;5072873;28;19970;-58
2023/01/24 02:41:43;;;;;;;;;;;;;;;2.39;88.30;103755.53;5071463;28;19917;-58
2023/01/24 02:44:11;;;;;;;;;;;;;;;2.38;88.31;103749.41;5077651;28;19924;-57
2023/01/24 02:46:36;;;;;;;;;;;;;;;2.37;88.39;103752.94;5075271;28;19951;-56
2023/01/24 02:49:01;;;;;;;;;;;;;;;2.35;88.22;103748.66;5064800;28;19960;-57
2023/01/24 02:54:10;;;;;;;;;;;;;;;2.35;88.35;103744.28;5075141;28;20418;-57
2023/01/24 02:59:19;;;;;;;;;;;;;;;2.35;88.37;103744.28;5068552;28;19925;-57
2023/01/24 03:01:44;;;;;;;;;;;;;;;2.34;88.17;103745.19;5072056;28;19925;-58
2023/01/24 03:04:11;;;;;;;;;;;;;;;2.34;88.58;103744.31;5069693;28;19920;-57
2023/01/24 03:06:36;;;;;;;;;;;;;;;2.34;88.51;103746.94;5063588;28;19978;-57
2023/01/24 03:09:18;;;;;;;;;;;;;;;2.34;88.57;103746.94;5074220;28;19924;-58
2023/01/24 03:11:43;;;;;;;;;;;;;;;2.35;88.36;103748.66;5070296;28;19940;-57
2023/01/24 03:36:01;;;;;;;;;;;;;;;2.26;88.57;103741.91;5078383;28;19947;-57
2023/01/24 03:41:10;;;;;;;;;;;;;;;2.26;88.53;103746.28;5060774;28;19931;-58
2023/01/24 03:43:35;;;;;;;;;;;;;;;2.25;88.57;103740.19;5065320;28;19920;-58
2023/01/24 03:46:01;;;;;;;;;;;;;;;2.26;88.62;103738.41;5070450;28;20312;-58
2023/01/24 03:48:33;;;;;;;;;;;;;;;2.24;88.89;103735.84;5056508;28;19960;-56
2023/01/24 03:53:42;;;;;;;;;;;;;;;2.23;88.72;103742.00;5061814;28;19939;-58
2023/01/24 03:56:07;;;;;;;;;;;;;;;2.24;88.83;103742.84;5066093;28;19916;-55
2023/01/24 03:58:33;;;;;;;;;;;;;;;2.23;88.96;103739.38;5063751;28;20070;-58
2023/01/24 04:00:58;;;;;;;;;;;;;;;2.23;88.84;103746.38;5062373;28;19916;-58
2023/01/24 04:03:23;;;;;;;;;;;;;;;2.22;88.88;103737.66;5075491;28;20377;-58
2023/01/24 04:05:49;;;;;;;;;;;;;;;2.22;89.10;103732.41;5078283;28;20006;-57
2023/01/24 04:08:15;;;;;;;;;;;;;;;2.22;88.88;103740.28;5067121;28;19923;-57
2023/01/24 04:10:40;;;;;;;;;;;;;;;2.21;88.97;103735.09;5076290;28;19951;-57
2023/01/24 04:13:05;;;;;;;;;;;;;;;2.18;88.91;103738.66;5067678;28;19939;-57
2023/01/24 04:15:31;;;;;;;;;;;;;;;2.18;89.17;103738.66;5068705;28;20026;-57
2023/01/24 04:17:57;;;;;;;;;;;;;;;2.18;88.82;103741.28;5066585;28;19924;-57
2023/01/24 04:20:22;;;;;;;;;;;;;;;2.15;88.87;103742.22;5070319;28;19965;-57
2023/01/24 04:22:47;;;;;;;;;;;;;;;2.14;88.77;103724.78;5075644;28;19920;-58
2023/01/24 04:25:13;;;;;;;;;;;;;;;2.13;88.75;103735.31;5058951;28;19917;-57
2023/01/24 04:27:38;;;;;;;;;;;;;;;2.07;88.63;103738.97;5065705;28;20015;-57
2023/01/24 04:30:05;;;;;;;;;;;;;;;2.14;88.43;103730.03;5066084;28;19917;-57
2023/01/24 04:32:30;;;;;;;;;;;;;;;2.04;88.45;103736.44;5067730;28;19923;-57
2023/01/24 04:34:55;;;;;;;;;;;;;;;2.01;88.41;103743.50;5072145;28;19924;-57
2023/01/24 04:37:20;;;;;;;;;;;;;;;2.02;88.63;103753.94;5068013;28;19936;-57
2023/01/24 04:39:45;;;;;;;;;;;;;;;2.03;88.72;103747.84;5060674;28;19970;-57
2023/01/24 04:42:11;;;;;;;;;;;;;;;2.04;88.90;103749.56;5070238;28;19920;-57
2023/01/24 04:44:36;;;;;;;;;;;;;;;2.06;89.25;103749.50;5073275;28;19927;-57
2023/01/24 04:47:01;;;;;;;;;;;;;;;2.07;89.34;103738.13;5069633;28;19924;-56
2023/01/24 04:49:26;;;;;;;;;;;;;;;2.06;89.50;103747.75;5066850;28;19916;-56
2023/01/24 04:51:51;;;;;;;;;;;;;;;2.09;89.39;103749.41;5075833;28;19916;-58
2023/01/24 04:54:17;;;;;;;;;;;;;;;2.09;89.64;103747.66;5073579;28;19995;-57
2023/01/24 04:56:42;;;;;;;;;;;;;;;2.09;89.53;103745.03;5073368;28;20058;-57
2023/01/24 04:59:08;;;;;;;;;;;;;;;2.10;89.42;103751.13;5065798;28;20014;-58
2023/01/24 05:01:33;;;;;;;;;;;;;;;2.07;89.52;103746.84;5073621;28;20497;-58
2023/01/24 05:03:59;;;;;;;;;;;;;;;2.07;89.41;103751.22;5067261;28;19927;-57
2023/01/24 05:06:28;;;;;;;;;;;;;;;2.06;89.40;103750.38;5072972;28;19957;-57
2023/01/24 05:08:53;;;;;;;;;;;;;;;2.06;89.64;103755.59;5067542;28;20291;-57
2023/01/24 05:11:18;;;;;;;;;;;;;;;2.06;89.51;103755.59;5068187;28;19916;-57
2023/01/24 05:13:44;;;;;;;;;;;;;;;2.07;89.59;103754.72;5079084;28;20387;-57
2023/01/24 05:16:09;;;;;;;;;;;;;;;2.05;89.70;103759.13;5081397;28;19916;-57
2023/01/24 05:18:34;;;;;;;;;;;;;;;2.01;89.32;103754.84;5070411;28;19962;-57
2023/01/24 05:21:06;;;;;;;;;;;;;;;2.02;89.61;103761.81;5070936;28;19916;-57
2023/01/24 05:23:31;;;;;;;;;;;;;;;1.99;89.58;103761.03;5070190;28;19928;-57
2023/01/24 05:26:00;;;;;;;;;;;;;;;1.97;89.45;103766.31;5071152;28;19917;-56
2023/01/24 05:28:25;;;;;;;;;;;;;;;1.97;89.68;103763.72;5069678;28;19961;-57
2023/01/24 05:30:51;;;;;;;;;;;;;;;1.98;89.71;103764.56;5061562;28;20357;-56
2023/01/24 05:33:16;;;;;;;;;;;;;;;1.95;89.46;103765.50;5069195;28;19916;-56
2023/01/24 05:35:43;;;;;;;;;;;;;;;1.97;89.64;103775.97;5086463;28;19927;-58
2023/01/24 05:38:08;;;;;;;;;;;;;;;1.96;89.89;103767.22;5071186;28;19923;-57
2023/01/24 05:40:33;;;;;;;;;;;;;;;1.95;89.71;103769.91;5076628;28;19920;-57
2023/01/24 05:42:58;;;;;;;;;;;;;;;1.95;89.77;103769.91;5078657;28;20288;-58
2023/01/24 05:45:24;;;;;;;;;;;;;;;1.95;89.70;103768.13;5077868;28;19919;-57
2023/01/24 05:47:49;;;;;;;;;;;;;;;1.93;89.70;103776.94;5069511;28;19970;-57
2023/01/24 05:50:14;;;;;;;;;;;;;;;1.92;89.80;103775.22;5080119;28;19916;-55
2023/01/24 05:52:39;;;;;;;;;;;;;;;1.93;89.85;103769.94;5065196;28;20016;-57
2023/01/24 05:55:05;;;;;;;;;;;;;;;1.90;89.71;103783.13;5072051;28;19916;-57
2023/01/24 05:57:30;;;;;;;;;;;;;;;1.91;90.00;103781.38;5067624;28;20402;-57
2023/01/24 05:59:56;;;;;;;;;;;;;;;1.85;90.02;103772.78;5067160;28;19920;-58
2023/01/24 06:02:21;;;;;;;;;;;;;;;1.92;90.23;103788.34;5069975;28;19923;-58
2023/01/24 06:04:46;;;;;;;;;;;;;;;1.90;90.26;103806.72;5065170;28;19921;-57
2023/01/24 06:07:11;;;;;;;;;;;;;;;1.89;90.07;103798.91;5064150;28;19924;-56
2023/01/24 06:09:36;;;;;;;;;;;;;;;1.86;90.33;103798.09;5056539;28;20366;-57
2023/01/24 06:12:02;;;;;;;;;;;;;;;1.87;90.12;103798.94;5074784;28;19920;-58
2023/01/24 06:14:27;;;;;;;;;;;;;;;1.88;90.33;103803.28;5068413;28;19966;-57
2023/01/24 06:16:52;;;;;;;;;;;;;;;1.89;90.29;103802.38;5065767;28;19916;-57
2023/01/24 06:19:17;;;;;;;;;;;;;;;1.90;90.30;103798.84;5061932;28;19928;-57
2023/01/24 06:21:46;;;;;;;;;;;;;;;1.90;90.16;103801.47;5064372;28;19924;-56
2023/01/24 06:24:17;;;;;;;;;;;;;;;1.90;90.30;103804.09;5069602;28;19946;-57
2023/01/24 06:26:42;;;;;;;;;;;;;;;1.87;90.35;103798.94;5074388;28;19925;-57
2023/01/24 06:29:10;;;;;;;;;;;;;;;1.87;90.56;103798.94;5073852;28;19978;-57
2023/01/24 06:31:46;;;;;;;;;;;;;;;1.86;90.54;103808.56;5067193;28;20410;-57
2023/01/24 06:34:29;;;;;;;;;;;;;;;1.85;90.51;103805.97;5069571;28;19973;-58
2023/01/24 06:37:12;;;;;;;;;;;;;;;1.87;90.31;103812.03;5073636;28;20054;-57
2023/01/24 06:39:38;;;;;;;;;;;;;;;1.84;90.60;103812.13;5069220;28;19927;-57
2023/01/24 06:42:04;;;;;;;;;;;;;;;1.82;90.44;103804.31;5068940;28;19920;-57
2023/01/24 06:44:29;;;;;;;;;;;;;;;1.81;90.64;103807.84;5061104;28;19916;-57
2023/01/24 06:46:54;;;;;;;;;;;;;;;1.82;90.60;103809.56;5062901;28;19917;-58
2023/01/24 06:49:20;;;;;;;;;;;;;;;1.82;90.42;103813.94;5067198;28;19920;-57
2023/01/24 06:51:49;;;;;;;;;;;;;;;1.82;90.55;103813.94;5068997;28;19920;-57
2023/01/24 06:54:16;;;;;;;;;;;;;;;1.83;90.57;103808.66;5063762;28;19917;-58
2023/01/24 06:56:41;;;;;;;;;;;;;;;1.84;90.60;103812.13;5063321;28;19928;-55
2023/01/24 06:59:06;;;;;;;;;;;;;;;1.84;90.60;103817.38;5061830;28;19920;-58
2023/01/24 07:01:31;;;;;;;;;;;;;;;1.85;90.87;103816.47;5065739;28;19924;-57
2023/01/24 07:03:56;;;;;;;;;;;;;;;1.84;90.88;103818.22;5073704;28;19948;-57
2023/01/24 07:06:23;;;;;;;;;;;;;;;1.83;90.80;103813.03;5071682;28;20365;-56
2023/01/24 07:08:48;;;;;;;;;;;;;;;1.81;90.70;103817.47;5064538;28;19921;-57
2023/01/24 07:11:13;;;;;;;;;;;;;;;1.79;90.88;103825.34;5064258;28;19913;-57
2023/01/24 07:13:38;;;;;;;;;;;;;;;1.79;90.77;103822.75;5077963;28;19916;-58
2023/01/24 07:16:04;;;;;;;;;;;;;;;1.77;90.80;103828.91;5073348;28;19935;-57
2023/01/24 07:18:29;;;;;;;;;;;;;;;1.74;90.71;103829.88;5073631;28;19917;-58
2023/01/24 07:20:54;;;;;;;;;;;;;;;1.74;90.57;103840.34;5065827;28;19938;-56
2023/01/24 07:23:21;;;;;;;;;;;;;;;1.75;90.99;103841.19;5075869;28;19927;-57
2023/01/24 07:25:47;;;;;;;;;;;;;;;1.75;90.83;103849.06;5076095;28;19923;-57
2023/01/24 07:28:12;;;;;;;;;;;;;;;1.76;91.15;103854.25;5069582;28;19921;-57
2023/01/24 07:30:37;;;;;;;;;;;;;;;1.77;91.01;103849.88;5067472;28;19917;-57
2023/01/24 07:33:02;;;;;;;;;;;;;;;1.77;91.12;103855.97;5076064;28;19916;-58
2023/01/24 07:35:28;;;;;;;;;;;;;;;1.76;91.24;103849.03;5070182;28;19912;-57
2023/01/24 07:37:54;;;;;;;;;;;;;;;1.78;nan;103854.22;5064165;28;19916;-58
2023/01/24 07:40:19;;;;;;;;;;;;;;;1.73;90.78;103845.59;5058620;28;19960;-57
2023/01/24 07:42:44;;;;;;;;;;;;;;;1.72;90.74;103846.50;5059745;28;19946;-58
2023/01/24 07:45:09;;;;;;;;;;;;;;;1.72;90.82;103846.50;5059099;28;19913;-57
2023/01/24 07:47:35;;;;;;;;;;;;;;;1.71;90.89;103856.09;5061310;28;20342;-58
2023/01/24 07:50:00;;;;;;;;;;;;;;;1.67;90.88;103856.22;5072313;28;19916;-57
2023/01/24 07:52:25;;;;;;;;;;;;;;;1.66;90.59;103862.38;5069021;28;20316;-56
2023/01/24 07:54:50;;;;;;;;;;;;;;;1.65;90.64;103863.28;5064055;28;19923;-58
2023/01/24 07:57:16;;;;;;;;;;;;;;;1.62;90.58;103865.97;5065503;28;19916;-56
2023/01/24 07:59:41;;;;;;;;;;;;;;;1.61;90.80;103864.25;5071488;28;19978;-58
2023/01/24 08:02:09;;;;;;;;;;;;;;;1.62;91.03;103873.81;5075084;28;20648;-56
2023/01/24 08:04:34;;;;;;;;;;;;;;;1.64;90.91;103864.16;5061329;28;19916;-58
2023/01/24 08:07:17;;;;;;;;;;;;;;;1.64;91.11;103874.66;5070044;28;19923;-57
2023/01/24 08:09:43;;;;;;;;;;;;;;;1.64;91.23;103875.50;5075288;28;20391;-58
2023/01/24 08:12:08;;;;;;;;;;;;;;;1.64;91.14;103877.25;5076990;28;19951;-57
2023/01/24 08:14:33;;;;;;;;;;;;;;;1.62;91.09;103872.06;5064454;28;19916;-57
2023/01/24 08:16:59;;;;;;;;;;;;;;;1.61;91.20;103872.09;5076716;28;20513;-58
2023/01/24 08:19:24;;;;;;;;;;;;;;;1.60;91.35;103862.53;5068465;28;19959;-57
2023/01/24 08:21:49;;;;;;;;;;;;;;;1.60;91.45;103875.63;5067190;28;19916;-57
2023/01/24 08:24:14;;;;;;;;;;;;;;;1.60;91.36;103873.00;5081125;28;20402;-58
2023/01/24 08:26:40;;;;;;;;;;;;;;;1.61;91.29;103866.88;5070577;28;19930;-57
2023/01/24 08:29:05;;;;;;;;;;;;;;;1.63;91.50;103880.78;5069183;28;19940;-58
2023/01/24 08:31:30;;;;;;;;;;;;;;;1.62;91.43;103876.44;5071207;28;20588;-56
2023/01/24 08:33:55;;;;;;;;;;;;;;;1.61;91.41;103870.34;5067144;28;19920;-57
2023/01/24 08:36:21;;;;;;;;;;;;;;;1.60;91.14;103881.72;5079679;28;19950;-57
2023/01/24 08:38:46;;;;;;;;;;;;;;;1.54;91.09;103889.75;5064704;28;19917;-58
2023/01/24 08:41:11;;;;;;;;;;;;;;;1.51;91.32;103884.56;5066410;28;20579;-58
2023/01/24 08:43:36;;;;;;;;;;;;;;;1.51;91.47;103893.28;5076438;28;19920;-57
2023/01/24 08:46:02;;;;;;;;;;;;;;;1.54;91.40;103892.34;5062913;28;20479;-57
2023/01/24 08:48:27;;;;;;;;;;;;;;;1.54;91.49;103898.47;5073967;28;20319;-57
2023/01/24 08:50:52;;;;;;;;;;;;;;;1.57;91.41;103899.28;5068435;28;19961;-58
2023/01/24 08:53:18;;;;;;;;;;;;;;;1.57;91.59;103896.66;5066304;28;19924;-57
2023/01/24 08:55:43;;;;;;;;;;;;;;;1.57;91.65;103894.91;5069580;28;19978;-56
2023/01/24 08:58:08;;;;;;;;;;;;;;;1.59;91.42;103900.09;5061859;28;19966;-57
2023/01/24 09:00:33;;;;;;;;;;;;;;;1.59;91.40;103898.34;5073526;28;19916;-58
2023/01/24 09:03:00;;;;;;;;;;;;;;;1.61;91.68;103903.53;5071040;28;19927;-58
2023/01/24 09:05:25;;;;;;;;;;;;;;;1.63;91.44;103904.34;5072410;28;19919;-58
2023/01/24 09:07:51;;;;;;;;;;;;;;;1.64;91.47;103908.69;5071621;28;19912;-57
2023/01/24 09:10:16;;;;;;;;;;;;;;;1.63;91.30;103907.84;5078060;28;19919;-57
2023/01/24 09:12:41;;;;;;;;;;;;;;;1.64;91.29;103908.69;5081646;28;19916;-54
2023/01/24 09:15:07;;;;;;;;;;;;;;;1.64;91.31;103908.69;5079511;28;19919;-58
2023/01/24 09:17:34;;;;;;;;;;;;;;;1.67;91.55;103911.25;5074880;28;19916;-58
2023/01/24 09:19:59;;;;;;;;;;;;;;;1.69;91.43;103906.81;5061811;28;19960;-57
2023/01/24 09:22:24;;;;;;;;;;;;;;;1.68;91.33;103908.59;5067770;28;19984;-57
2023/01/24 09:24:49;;;;;;;;;;;;;;;1.70;91.22;103913.78;5065479;28;19928;-57
2023/01/24 09:27:14;;;;;;;;;;;;;;;1.74;91.29;103910.22;5079370;28;19916;-57
2023/01/24 09:29:40;;;;;;;;;;;;;;;1.69;90.98;103910.31;5066626;28;20045;-57
2023/01/24 09:32:05;;;;;;;;;;;;;;;1.65;90.95;103915.66;5066228;28;19920;-57
2023/01/24 09:34:30;;;;;;;;;;;;;;;1.65;90.99;103913.03;5069735;28;19944;-57
2023/01/24 09:36:55;;;;;;;;;;;;;;;1.62;91.07;103913.13;5082763;28;20509;-57
2023/01/24 09:39:21;;;;;;;;;;;;;;;1.62;91.07;103913.97;5079231;28;19913;-57
2023/01/24 09:41:52;;;;;;;;;;;;;;;1.65;91.11;103919.13;5068897;28;20291;-58
2023/01/24 09:44:34;;;;;;;;;;;;;;;1.68;91.36;103920.81;5060871;28;20371;-57
2023/01/24 09:47:01;;;;;;;;;;;;;;;1.71;91.58;103918.13;5082280;28;19916;-57
2023/01/24 09:49:37;;;;;;;;;;;;;;;1.70;91.69;103927.75;5070969;28;19913;-57
2023/01/24 09:52:06;;;;;;;;;;;;;;;1.72;91.38;103918.09;5066540;28;19970;-57
2023/01/24 09:54:35;;;;;;;;;;;;;;;1.72;91.27;103925.94;5079359;28;19912;-57
2023/01/24 09:57:01;;;;;;;;;;;;;;;1.70;91.24;103927.75;5072479;28;20011;-57
2023/01/24 09:59:35;;;;;;;;;;;;;;;1.72;91.22;103931.19;5073608;28;19995;-58
2023/01/24 10:02:01;;;;;;;;;;;;;;;1.69;91.05;103931.25;5058421;28;19944;-58
2023/01/24 10:04:30;;;;;;;;;;;;;;;1.70;91.05;103929.50;5065362;28;19968;-56
2023/01/24 10:07:12;;;;;;;;;;;;;;;1.69;90.77;103930.41;5080540;28;19916;-58
2023/01/24 10:09:50;;;;;;;;;;;;;;;1.69;90.91;103933.88;5058161;28;19920;-57
2023/01/24 10:12:24;;;;;;;;;;;;;;;1.70;90.52;103927.75;5070342;28;19912;-57
2023/01/24 10:14:49;;;;;;;;;;;;;;;1.71;90.45;103929.47;5067443;28;19978;-58
2023/01/24 10:17:33;;;;;;;;;;;;;;;1.72;90.26;103927.69;5061238;28;19920;-58
2023/01/24 10:19:58;;;;;;;;;;;;;;;1.73;90.43;103934.66;5071854;28;19916;-57
2023/01/24 10:22:42;;;;;;;;;;;;;;;1.73;90.40;103927.66;5065101;28;20359;-57
2023/01/24 10:25:18;;;;;;;;;;;;;;;1.75;90.31;103930.28;5070911;28;20601;-56
2023/01/24 10:27:46;;;;;;;;;;;;;;;1.76;90.55;103938.09;5083975;28;19923;-57
2023/01/24 10:30:20;;;;;;;;;;;;;;;1.77;90.39;103933.72;5064059;28;20336;-57
2023/01/24 10:32:48;;;;;;;;;;;;;;;1.78;90.32;103938.06;5079426;28;19944;-58
2023/01/24 10:35:16;;;;;;;;;;;;;;;1.76;90.46;103926.75;5064529;28;19958;-56
2023/01/24 10:37:43;;;;;;;;;;;;;;;1.79;90.32;103929.31;5072056;28;19917;-57
2023/01/24 10:40:12;;;;;;;;;;;;;;;1.81;90.24;103928.34;5073426;28;19986;-56
2023/01/24 10:42:38;;;;;;;;;;;;;;;1.82;90.06;103930.06;5074247;28;19919;-57
2023/01/24 10:45:21;;;;;;;;;;;;;;;1.84;90.24;103930.03;5065096;28;19924;-57
2023/01/24 10:47:50;;;;;;;;;;;;;;;1.83;90.04;103925.69;5066200;28;19913;-57
2023/01/24 10:50:16;;;;;;;;;;;;;;;1.80;89.70;103933.63;5082658;28;19922;-58
2023/01/24 10:52:42;;;;;;;;;;;;;;;1.81;89.96;103927.50;5061819;28;20353;-56
2023/01/24 10:55:31;;;;;;;;;;;;;;;1.82;89.78;103922.22;5075122;28;20379;-57
2023/01/24 10:57:57;;;;;;;;;;;;;;;1.79;89.78;103921.44;5067964;28;19924;-57
2023/01/24 11:00:26;;;;;;;;;;;;;;;1.77;89.68;103928.47;5078923;28;19927;-57
2023/01/24 11:02:53;;;;;;;;;;;;;;;1.79;89.86;103924.06;5062130;28;20623;-57
2023/01/24 11:05:19;;;;;;;;;;;;;;;1.77;89.80;103923.25;5072235;28;19916;-57
2023/01/24 11:07:49;;;;;;;;;;;;;;;1.74;89.98;103924.19;5069412;28;19916;-56
2023/01/24 11:10:18;;;;;;;;;;;;;;;1.78;89.86;103915.34;5056597;28;20441;-57
2023/01/24 11:12:50;;;;;;;;;;;;;;;1.80;89.89;103918.78;5062017;28;19939;-57
2023/01/24 11:15:18;;;;;;;;;;;;;;;1.82;89.92;103914.34;5081739;28;19912;-57
2023/01/24 11:17:44;;;;;;;;;;;;;;;1.84;90.14;103916.94;5065530;28;19917;-58
2023/01/24 11:20:21;;;;;;;;;;;;;;;1.85;89.91;103909.03;5062329;28;19969;-58
2023/01/24 11:22:50;;;;;;;;;;;;;;;1.89;89.99;103907.19;5067262;28;19949;-57
2023/01/24 11:25:15;;;;;;;;;;;;;;;1.90;90.02;103894.94;5070248;28;19920;-58
2023/01/24 11:27:49;;;;;;;;;;;;;;;1.92;90.00;103895.78;5064260;28;19966;-58
2023/01/24 11:30:21;;;;;;;;;;;;;;;1.96;90.08;103903.50;5065679;28;19920;-58
2023/01/24 11:33:07;;;;;;;;;;;;;;;1.98;89.95;103899.09;5070917;28;19919;-58
2023/01/24 11:35:46;;;;;;;;;;;;;;;2.01;89.79;103892.91;5032891;28;20022;-57
2023/01/24 11:38:26;;;;;;;;;;;;;;;1.99;89.67;103887.69;5073072;28;20351;-57
2023/01/24 11:41:10;;;;;;;;;;;;;;;2.00;89.51;103888.56;5062276;28;19916;-56
2023/01/24 11:43:42;;;;;;;;;;;;;;;2.00;89.52;103881.56;5064786;28;19928;-58
2023/01/24 11:46:13;;;;;;;;;;;;;;;1.97;88.98;103886.03;5069639;28;19920;-57
2023/01/24 11:48:52;;;;;;;;;;;;;;;1.93;88.95;103887.88;5079552;28;19912;-58
2023/01/24 11:51:36;;;;;;;;;;;;;;;1.92;88.88;103883.53;5072051;28;20404;-58
2023/01/24 11:54:20;;;;;;;;;;;;;;;1.88;89.12;103881.91;5061767;28;19917;-58
2023/01/24 11:56:46;;;;;;;;;;;;;;;1.89;88.98;103878.38;5068756;28;19916;-58
2023/01/24 11:59:23;;;;;;;;;;;;;;;1.88;89.18;103879.28;5059043;28;19919;-58
2023/01/24 12:01:53;;;;;;;;;;;;;;;1.94;89.15;103878.25;5052772;28;19912;-57
2023/01/24 12:04:24;;;;;;;;;;;;;;;1.98;89.48;103870.25;5077946;28;19956;-57
2023/01/24 12:07:03;;;;;;;;;;;;;;;2.02;89.67;103864.03;5074597;28;19923;-57
2023/01/24 12:09:32;;;;;;;;;;;;;;;2.06;89.43;103860.44;5067460;28;21496;-58
2023/01/24 12:12:03;;;;;;;;;;;;;;;2.03;89.27;103860.53;5075948;28;19924;-57
2023/01/24 12:14:29;;;;;;;;;;;;;;;2.06;89.35;103857.84;5068793;28;19920;-56
2023/01/24 12:17:13;;;;;;;;;;;;;;;2.07;89.23;103850.81;5067464;28;19916;-57
2023/01/24 12:19:45;;;;;;;;;;;;;;;2.09;89.14;103849.88;5064230;28;19912;-56
2023/01/24 12:22:19;;;;;;;;;;;;;;;2.12;88.95;103852.41;5073352;28;19927;-58
2023/01/24 12:24:52;;;;;;;;;;;;;;;2.13;89.00;103843.66;5084170;28;20345;-57
2023/01/24 12:27:19;;;;;;;;;;;;;;;2.13;88.74;103846.28;5066536;28;19948;-58
2023/01/24 12:29:45;;;;;;;;;;;;;;;2.15;88.77;103840.97;5058442;28;19948;-58
2023/01/24 12:32:28;;;;;;;;;;;;;;;2.13;88.79;103835.78;5076182;28;19959;-58
2023/01/24 12:35:04;;;;;;;;;;;;;;;2.13;88.58;103825.31;5069038;28;19920;-58
2023/01/24 12:37:32;;;;;;;;;;;;;;;2.13;88.55;103830.53;5080866;28;20007;-55
2023/01/24 12:40:06;;;;;;;;;;;;;;;2.14;88.56;103832.25;5065338;28;19935;-57
2023/01/24 12:42:50;;;;;;;;;;;;;;;2.16;88.41;103832.22;5078372;28;19920;-56
2023/01/24 12:45:38;;;;;;;;;;;;;;;2.16;88.34;103821.72;5078196;28;19973;-57
2023/01/24 12:48:18;;;;;;;;;;;;;;;2.16;88.32;103822.59;5063412;28;19916;-57
2023/01/24 12:50:51;;;;;;;;;;;;;;;2.15;88.10;103825.25;5081690;28;19919;-58
2023/01/24 12:53:21;;;;;;;;;;;;;;;2.13;88.07;103813.97;5069824;28;20711;-58
2023/01/24 12:55:56;;;;;;;;;;;;;;;2.13;87.95;103822.69;5064009;28;19950;-56
2023/01/24 12:58:21;;;;;;;;;;;;;;;2.14;87.76;103818.28;5078783;28;20057;-58
2023/01/24 13:00:58;;;;;;;;;;;;;;;2.15;88.09;103820.00;5064278;28;20432;-58
2023/01/24 13:03:23;;;;;;;;;;;;;;;2.17;87.98;103807.72;5068212;28;19920;-58
2023/01/24 13:05:55;;;;;;;;;;;;;;;2.17;87.76;103807.72;5071470;28;19966;-57
2023/01/24 13:08:38;;;;;;;;;;;;;;;2.16;87.96;103806.84;5065570;28;19916;-57
2023/01/24 13:11:07;;;;;;;;;;;;;;;2.08;87.57;103806.22;5074457;28;20360;-56
2023/01/24 13:13:36;;;;;;;;;;;;;;;2.08;87.84;103810.59;5058296;28;19913;-57
2023/01/24 13:16:01;;;;;;;;;;;;;;;2.09;87.76;103805.31;5070517;28;20368;-58
2023/01/24 13:18:41;;;;;;;;;;;;;;;2.10;87.76;103799.19;5065287;28;20469;-57
2023/01/24 13:21:14;;;;;;;;;;;;;;;1.73;87.81;103731.19;5057281;28;19917;-58
2023/01/24 13:23:48;;;;;;;;;;;;;;;2.11;87.93;103802.66;5076244;28;19925;-57
2023/01/24 13:26:19;;;;;;;;;;;;;;;2.09;87.73;103802.69;5082449;28;20006;-57
2023/01/24 13:28:57;;;;;;;;;;;;;;;2.10;87.93;103807.03;5077641;28;19963;-57
2023/01/24 13:31:27;;;;;;;;;;;;;;;2.12;87.97;103804.38;5067295;28;20449;-57